Time;durP1;ratioP1;P1;durP2;ratioP2;P2;SDS_P1;SDS_P2;PMS_P1;PMS_P2;Temp;Humidity;BMP_temperature;BMP_pressure;BME280_temperature;BME280_humidity;BME280_pressure;Samples;Min_cycle;Max_cycle;Signal;HPM_P1;HPM_P2
2022/04/24 00:01:56;;;;;;;9.25;8.45;;;;;;;7.94;75.80;98221.20;1734929;80;21039;-67
2022/04/24 00:04:24;;;;;;;8.53;7.72;;;;;;;7.94;75.81;98225.17;1733349;80;21395;-67
2022/04/24 00:06:53;;;;;;;9.15;8.35;;;;;;;7.94;75.77;98220.70;1733265;82;21505;-68
2022/04/24 00:09:21;;;;;;;9.13;8.25;;;;;;;7.94;75.71;98223.84;1733875;80;21237;-70
2022/04/24 00:11:48;;;;;;;9.08;8.18;;;;;;;7.92;75.71;98219.25;1733272;82;21497;-69
2022/04/24 00:14:17;;;;;;;9.15;8.25;;;;;;;7.90;75.85;98218.61;1732433;82;20920;-67
2022/04/24 00:16:44;;;;;;;8.18;7.42;;;;;;;7.90;75.90;98222.06;1733208;82;20940;-68
2022/04/24 00:19:11;;;;;;;8.90;8.20;;;;;;;7.90;75.94;98226.56;1734030;80;20931;-68
2022/04/24 00:21:38;;;;;;;9.30;8.50;;;;;;;7.90;75.91;98223.91;1724408;82;21284;-68
2022/04/24 00:24:06;;;;;;;8.98;8.18;;;;;;;7.90;75.92;98223.38;1724166;82;20949;-66
2022/04/24 00:26:33;;;;;;;9.50;8.70;;;;;;;7.89;75.92;98226.23;1733156;82;20904;-68
2022/04/24 00:29:01;;;;;;;9.43;8.63;;;;;;;7.87;75.96;98229.56;1733185;82;21047;-67
2022/04/24 00:31:29;;;;;;;9.00;8.20;;;;;;;7.87;75.89;98221.62;1742062;81;21011;-66
2022/04/24 00:33:57;;;;;;;10.35;8.73;;;;;;;7.86;75.84;98224.77;1751847;80;21246;-68
2022/04/24 00:36:25;;;;;;;9.90;9.00;;;;;;;7.84;75.84;98224.14;1745950;80;20884;-67
2022/04/24 00:38:52;;;;;;;9.00;8.15;;;;;;;7.83;75.89;98222.98;1737781;82;21032;-68
2022/04/24 00:41:18;;;;;;;9.15;8.35;;;;;;;7.80;75.99;98217.55;1752159;81;21021;-67
2022/04/24 00:43:52;;;;;;;8.88;8.15;;;;;;;7.80;76.01;98217.55;1743514;80;20864;-68
2022/04/24 00:46:48;;;;;;;9.25;8.45;;;;;;;7.80;76.00;98222.84;1736980;81;21275;-68
2022/04/24 00:49:16;;;;;;;9.08;8.28;;;;;;;7.78;76.06;98225.35;1687665;83;21466;-69
2022/04/24 00:51:44;;;;;;;9.88;9.00;;;;;;;7.76;76.16;98228.69;1743153;80;21002;-68
2022/04/24 00:54:11;;;;;;;9.50;8.70;;;;;;;7.76;76.14;98235.31;1751676;80;20991;-68
2022/04/24 00:56:41;;;;;;;8.28;7.45;;;;;;;7.74;76.16;98234.19;1729288;82;20951;-67
2022/04/24 00:59:12;;;;;;;8.58;7.78;;;;;;;7.76;76.08;98230.02;1753065;80;21159;-69
2022/04/24 01:01:42;;;;;;;9.53;8.63;;;;;;;7.76;76.04;98231.34;1750859;80;20908;-69
2022/04/24 01:04:12;;;;;;;8.73;7.92;;;;;;;7.74;76.05;98233.36;1753441;80;20956;-67
2022/04/24 01:06:42;;;;;;;9.13;8.33;;;;;;;7.72;76.08;98236.66;1752581;80;20994;-68
2022/04/24 01:09:12;;;;;;;8.73;7.92;;;;;;;7.68;76.05;98228.78;1752287;81;20908;-68
2022/04/24 01:11:41;;;;;;;9.35;8.55;;;;;;;7.67;76.02;98236.39;1751668;80;20896;-69
2022/04/24 01:14:08;;;;;;;9.03;8.13;;;;;;;7.61;76.13;98236.64;1752131;81;21049;-68
2022/04/24 01:16:35;;;;;;;9.33;8.53;;;;;;;7.59;76.21;98239.11;1751922;81;20995;-68
2022/04/24 01:19:04;;;;;;;10.18;8.70;;;;;;;7.59;76.23;98229.85;1752594;80;21433;-68
2022/04/24 01:21:33;;;;;;;9.38;8.48;;;;;;;7.57;76.29;98230.05;1751168;80;20998;-67
2022/04/24 01:24:00;;;;;;;9.90;9.00;;;;;;;7.54;76.38;98230.90;1752190;81;21301;-69
2022/04/24 01:26:26;;;;;;;9.23;8.33;;;;;;;7.55;76.40;98233.38;1751734;81;20891;-68
2022/04/24 01:28:54;;;;;;;8.83;8.03;;;;;;;7.56;76.40;98235.53;1752776;80;21485;-67
2022/04/24 01:31:22;;;;;;;9.13;8.18;;;;;;;7.55;76.46;98236.52;1750945;80;21046;-68
2022/04/24 01:33:50;;;;;;;9.65;8.75;;;;;;;7.54;76.49;98232.22;1752257;81;21480;-67
2022/04/24 01:36:16;;;;;;;8.25;7.45;;;;;;;7.52;76.50;98231.09;1752936;80;21153;-69
2022/04/24 01:38:44;;;;;;;9.05;8.13;;;;;;;7.49;76.53;98230.13;1752320;81;21401;-69
2022/04/24 01:41:11;;;;;;;8.70;7.90;;;;;;;7.48;76.50;98232.97;1739497;81;21003;-67
2022/04/24 01:43:38;;;;;;;9.05;8.25;;;;;;;7.46;76.52;98235.77;1753832;80;21540;-68
2022/04/24 01:46:06;;;;;;;9.23;8.33;;;;;;;7.46;76.45;98237.92;1752790;80;20848;-66
2022/04/24 01:48:33;;;;;;;9.08;8.25;;;;;;;7.42;76.48;98235.33;1740348;80;21560;-68
2022/04/24 01:51:07;;;;;;;9.20;8.40;;;;;;;7.39;76.61;98236.19;1740304;81;20937;-67
2022/04/24 01:53:34;;;;;;;9.73;8.85;;;;;;;7.37;76.64;98233.73;1740441;81;20982;-67
2022/04/24 01:56:04;;;;;;;9.33;8.55;;;;;;;7.36;76.70;98232.08;1752745;80;21461;-69
2022/04/24 01:58:32;;;;;;;9.60;8.60;;;;;;;7.34;76.74;98235.91;1751637;81;21552;-68
2022/04/24 02:01:00;;;;;;;10.08;9.05;;;;;;;7.31;76.82;98243.70;1752317;80;21001;-68
2022/04/24 02:03:29;;;;;;;8.93;8.13;;;;;;;7.29;76.86;98240.41;1751453;80;20896;-68
2022/04/24 02:05:56;;;;;;;10.08;8.53;;;;;;;7.27;76.92;98235.78;1752638;80;20895;-69
2022/04/24 02:08:25;;;;;;;9.70;8.90;;;;;;;7.28;76.99;98239.25;1752134;81;20908;-67
2022/04/24 02:10:53;;;;;;;10.40;9.43;;;;;;;7.26;77.06;98240.77;1741965;81;21433;-68
2022/04/24 02:13:20;;;;;;;9.65;8.75;;;;;;;7.25;77.21;98233.83;1763022;80;21268;-68
2022/04/24 02:15:49;;;;;;;10.65;9.68;;;;;;;7.25;77.32;98241.76;1752683;80;20919;-68
2022/04/24 02:18:17;;;;;;;10.58;9.30;;;;;;;7.25;77.41;98239.61;1752884;80;20939;-67
2022/04/24 02:20:43;;;;;;;10.98;10.00;;;;;;;7.23;77.48;98239.80;1752322;80;21441;-70
2022/04/24 02:23:10;;;;;;;10.23;9.33;;;;;;;7.25;77.45;98244.41;1751943;80;20978;-67
2022/04/24 02:25:36;;;;;;;10.35;9.45;;;;;;;7.24;77.44;98238.81;1752102;81;21332;-67
2022/04/24 02:28:04;;;;;;;10.63;9.63;;;;;;;7.26;77.40;98242.09;1752171;81;20907;-67
2022/04/24 02:30:32;;;;;;;10.68;9.73;;;;;;;7.26;77.33;98243.41;1752033;80;20971;-67
2022/04/24 02:33:00;;;;;;;10.48;9.55;;;;;;;7.24;77.33;98242.78;1752117;80;20983;-67
2022/04/24 02:35:27;;;;;;;11.08;10.00;;;;;;;7.24;77.36;98243.27;1752230;81;20883;-67
2022/04/24 02:37:56;;;;;;;11.12;10.13;;;;;;;7.21;77.38;98246.27;1752581;80;20876;-68
2022/04/24 02:40:22;;;;;;;11.43;10.28;;;;;;;7.20;77.35;98253.38;1739131;81;20912;-67
2022/04/24 02:42:50;;;;;;;10.45;9.40;;;;;;;7.16;77.42;98251.28;1752166;81;20903;-68
2022/04/24 02:45:17;;;;;;;10.88;9.88;;;;;;;7.17;77.40;98256.91;1752202;81;21418;-68
2022/04/24 02:47:44;;;;;;;11.08;10.08;;;;;;;7.16;77.38;98257.89;1752622;80;20951;-67
2022/04/24 02:50:13;;;;;;;10.80;9.90;;;;;;;7.14;77.33;98255.44;1739001;81;21052;-68
2022/04/24 02:52:54;;;;;;;10.70;9.70;;;;;;;7.13;77.32;98252.95;1741795;80;21247;-68
2022/04/24 02:55:22;;;;;;;10.65;9.45;;;;;;;7.11;77.34;98255.78;1752527;80;20987;-69
2022/04/24 02:57:49;;;;;;;10.63;9.28;;;;;;;7.13;77.33;98257.74;1752120;81;21019;-68
2022/04/24 03:00:24;;;;;;;11.33;10.28;;;;;;;7.12;77.33;98262.70;1741104;80;20927;-67
2022/04/24 03:02:47;;;;;;;10.80;9.70;;;;;;;7.10;77.40;98256.77;1751131;81;21144;-69
2022/04/24 03:05:16;;;;;;;10.82;9.93;;;;;;;7.10;77.40;98252.80;1739807;81;21047;-66
2022/04/24 03:07:45;;;;;;;11.53;10.45;;;;;;;7.10;77.42;98252.80;1752801;80;20923;-67
2022/04/24 03:10:12;;;;;;;11.20;10.28;;;;;;;7.11;77.46;98262.89;1752778;80;20982;-69
2022/04/24 03:12:40;;;;;;;11.93;10.85;;;;;;;7.11;77.50;98262.39;1752327;81;21500;-68
2022/04/24 03:15:09;;;;;;;11.60;10.58;;;;;;;7.14;77.56;98268.66;1740330;80;21926;-68
2022/04/24 03:17:37;;;;;;;10.78;9.78;;;;;;;7.19;77.65;98268.95;1741158;80;20864;-69
2022/04/24 03:20:07;;;;;;;11.88;10.88;;;;;;;7.27;77.73;98272.02;1751460;81;20987;-68
2022/04/24 03:22:34;;;;;;;12.40;11.20;;;;;;;7.36;77.73;98276.22;1751399;81;21510;-67
2022/04/24 03:25:04;;;;;;;11.53;10.53;;;;;;;7.46;77.71;98268.85;1752768;80;20943;-67
2022/04/24 03:27:32;;;;;;;11.90;10.80;;;;;;;7.57;77.62;98268.42;1752775;80;21513;-69
2022/04/24 03:29:58;;;;;;;11.65;10.55;;;;;;;7.67;77.48;98280.89;1752097;81;20974;-68
2022/04/24 03:32:32;;;;;;;11.90;10.80;;;;;;;7.80;77.33;98280.27;1726598;80;20908;-69
2022/04/24 03:34:59;;;;;;;12.50;10.95;;;;;;;7.91;77.11;98279.81;1733155;82;20967;-68
2022/04/24 03:37:26;;;;;;;11.93;10.58;;;;;;;8.05;76.81;98281.66;1733932;80;20928;-68
2022/04/24 03:39:52;;;;;;;11.33;10.23;;;;;;;8.20;76.45;98279.82;1733333;82;21258;-68
2022/04/24 03:42:20;;;;;;;11.25;10.23;;;;;;;8.36;76.05;98286.78;1732039;82;20971;-68
2022/04/24 03:44:47;;;;;;;11.28;10.25;;;;;;;8.52;75.62;98283.92;1734881;80;20924;-68
2022/04/24 03:47:14;;;;;;;10.45;9.53;;;;;;;8.61;75.02;98284.95;1733072;82;21024;-66
2022/04/24 03:49:42;;;;;;;10.65;9.78;;;;;;;8.66;74.45;98281.23;1732808;82;20944;-68
2022/04/24 03:52:11;;;;;;;11.53;10.53;;;;;;;8.73;73.96;98288.45;1713335;80;21417;-68
2022/04/24 03:54:38;;;;;;;11.48;10.50;;;;;;;8.73;73.58;98280.48;1722099;82;20915;-66
2022/04/24 03:57:07;;;;;;;10.90;9.90;;;;;;;8.72;73.25;98284.97;1733153;82;21406;-66
2022/04/24 03:59:35;;;;;;;11.85;10.80;;;;;;;8.73;73.01;98292.42;1733109;82;21030;-67
2022/04/24 04:02:02;;;;;;;12.50;11.40;;;;;;;8.76;72.87;98284.09;1732560;82;21050;-67
2022/04/24 04:04:30;;;;;;;11.80;10.20;;;;;;;8.76;72.57;98284.09;1710330;80;21532;-67
2022/04/24 04:06:57;;;;;;;12.18;10.88;;;;;;;8.77;72.41;98294.50;1733071;82;21383;-67
2022/04/24 04:09:24;;;;;;;11.00;10.00;;;;;;;8.74;72.29;98283.44;1689363;82;20997;-66
2022/04/24 04:11:51;;;;;;;11.80;10.70;;;;;;;8.70;72.09;98273.73;1732928;80;20998;-67
2022/04/24 04:14:19;;;;;;;11.25;10.25;;;;;;;8.73;72.30;98272.53;1733243;82;20941;-67
2022/04/24 04:16:45;;;;;;;11.97;10.88;;;;;;;8.90;72.84;98277.91;1734786;80;21767;-70
2022/04/24 04:19:13;;;;;;;11.63;10.63;;;;;;;9.18;72.74;98275.64;1734129;80;20967;-66
2022/04/24 04:21:44;;;;;;;11.60;10.50;;;;;;;9.51;72.39;98273.78;1730011;80;20995;-68
2022/04/24 04:24:12;;;;;;;10.30;9.50;;;;;;;9.85;71.65;98281.80;1733055;81;20932;-67
2022/04/24 04:26:39;;;;;;;10.30;9.40;;;;;;;10.26;70.80;98285.84;1733913;80;21476;-67
2022/04/24 04:29:05;;;;;;;10.40;9.35;;;;;;;10.71;69.88;98284.41;1732893;80;22098;-67
2022/04/24 04:31:33;;;;;;;10.65;9.75;;;;;;;11.18;68.72;98281.66;1723873;82;20940;-68
2022/04/24 04:34:00;;;;;;;10.95;9.55;;;;;;;11.73;66.86;98300.46;1724876;80;20979;-67
2022/04/24 04:36:28;;;;;;;10.43;9.53;;;;;;;12.20;65.22;98303.38;1732994;82;20971;-67
2022/04/24 04:38:54;;;;;;;10.13;9.30;;;;;;;12.69;63.94;98310.80;1733111;82;20952;-67
2022/04/24 04:41:22;;;;;;;10.03;9.23;;;;;;;13.23;62.16;98304.99;1733232;80;21308;-66
2022/04/24 04:43:49;;;;;;;10.30;9.40;;;;;;;13.57;60.29;98303.22;1725882;82;20924;-68
2022/04/24 04:46:15;;;;;;;10.78;9.93;;;;;;;13.69;58.60;98308.14;1733300;81;20975;-67
2022/04/24 04:48:43;;;;;;;11.53;10.53;;;;;;;13.59;57.55;98307.30;1733033;82;21030;-67
2022/04/24 04:51:10;;;;;;;11.57;10.58;;;;;;;13.31;56.97;98308.74;1730023;80;20980;-68
2022/04/24 04:53:37;;;;;;;12.25;11.03;;;;;;;12.91;57.15;98316.13;1722024;82;21217;-66
2022/04/24 04:56:05;;;;;;;11.03;9.95;;;;;;;12.55;57.60;98322.03;1733924;80;21526;-67
2022/04/24 04:58:32;;;;;;;12.37;11.28;;;;;;;12.21;58.24;98324.98;1733813;80;20999;-67
2022/04/24 05:01:00;;;;;;;11.25;10.25;;;;;;;11.98;58.90;98319.28;1719188;82;20982;-67
2022/04/24 05:03:28;;;;;;;11.18;10.18;;;;;;;11.72;59.47;98324.95;1733416;80;21628;-67
2022/04/24 05:05:55;;;;;;;11.78;10.70;;;;;;;11.50;60.17;98321.30;1733927;80;21839;-67
2022/04/24 05:08:22;;;;;;;10.82;9.83;;;;;;;11.28;60.87;98320.68;1689347;82;20932;-67
2022/04/24 05:10:51;;;;;;;11.63;10.60;;;;;;;11.12;61.52;98322.38;1729363;82;20998;-68
2022/04/24 05:13:20;;;;;;;12.88;11.55;;;;;;;11.00;62.12;98321.34;1731047;80;21591;-68
2022/04/24 05:15:47;;;;;;;12.75;11.75;;;;;;;10.86;62.63;98323.64;1724796;80;20947;-68
2022/04/24 05:18:13;;;;;;;14.00;12.73;;;;;;;10.72;63.18;98317.95;1733852;80;21145;-68
2022/04/24 05:20:43;;;;;;;12.75;11.55;;;;;;;10.61;63.70;98311.36;1726662;82;20927;-67
2022/04/24 05:23:10;;;;;;;12.78;11.68;;;;;;;10.56;64.39;98319.11;1727287;80;20975;-68
2022/04/24 05:25:36;;;;;;;12.95;11.88;;;;;;;10.53;64.81;98318.20;1721771;82;20948;-67
2022/04/24 05:28:04;;;;;;;12.28;11.28;;;;;;;10.51;65.16;98320.22;1734002;80;20892;-66
2022/04/24 05:30:33;;;;;;;12.47;11.40;;;;;;;10.56;65.44;98318.31;1730059;80;20968;-68
2022/04/24 05:32:59;;;;;;;13.15;11.95;;;;;;;10.65;65.59;98307.30;1725599;83;21004;-67
2022/04/24 05:35:26;;;;;;;12.85;11.65;;;;;;;10.79;65.66;98316.98;1730486;83;20939;-66
2022/04/24 05:37:52;;;;;;;12.50;11.33;;;;;;;10.98;65.60;98322.03;1730588;83;21076;-69
2022/04/24 05:40:20;;;;;;;11.93;10.93;;;;;;;11.15;65.26;98314.00;1729600;82;20920;-69
2022/04/24 05:42:51;;;;;;;11.43;10.45;;;;;;;11.41;64.73;98320.70;1718441;83;21249;-67
2022/04/24 05:45:22;;;;;;;11.40;10.32;;;;;;;11.67;64.25;98321.22;1729980;82;20936;-66
2022/04/24 05:47:50;;;;;;;11.45;10.45;;;;;;;12.00;63.85;98318.55;1744018;81;21019;-68
2022/04/24 05:50:17;;;;;;;11.57;10.40;;;;;;;12.42;63.10;98323.91;1745748;81;21474;-67
2022/04/24 05:52:44;;;;;;;11.05;9.95;;;;;;;12.92;61.89;98317.27;1731793;82;21033;-67
2022/04/24 05:55:11;;;;;;;11.25;10.10;;;;;;;13.43;60.60;98316.36;1747701;80;21443;-63
2022/04/24 05:57:39;;;;;;;10.82;9.93;;;;;;;14.03;59.16;98317.00;1747297;81;21603;-69
2022/04/24 06:00:11;;;;;;;11.15;10.20;;;;;;;14.72;57.41;98314.03;1752065;81;20997;-68
2022/04/24 06:02:41;;;;;;;10.85;9.85;;;;;;;15.41;55.79;98316.17;1741524;81;21427;-69
2022/04/24 06:05:08;;;;;;;10.60;9.60;;;;;;;16.22;53.78;98307.95;1752577;80;20994;-70
2022/04/24 06:07:35;;;;;;;9.50;8.70;;;;;;;16.87;51.78;98307.25;1752197;80;21220;-70
2022/04/24 06:10:04;;;;;;;9.85;9.05;;;;;;;17.42;50.36;98305.59;1750681;81;20982;-70
2022/04/24 06:12:32;;;;;;;10.00;9.20;;;;;;;17.87;48.94;98304.23;1753696;80;21398;-69
2022/04/24 06:15:04;;;;;;;9.43;8.63;;;;;;;18.09;47.34;98302.44;1753055;80;20926;-70
2022/04/24 06:17:32;;;;;;;9.18;8.15;;;;;;;18.21;46.47;98311.75;1740763;80;20955;-69
2022/04/24 06:19:59;;;;;;;9.38;8.58;;;;;;;18.05;45.83;98310.70;1752528;80;21347;-72
2022/04/24 06:22:27;;;;;;;8.75;7.87;;;;;;;17.92;45.64;98310.22;1723637;80;20895;-70
2022/04/24 06:24:54;;;;;;;9.20;8.40;;;;;;;17.84;45.72;98312.78;1745391;81;20931;-70
2022/04/24 06:27:20;;;;;;;9.45;8.65;;;;;;;17.75;45.67;98316.96;1752083;81;21094;-72
2022/04/24 06:29:46;;;;;;;9.93;9.05;;;;;;;17.72;45.70;98312.06;1751961;80;21472;-68
2022/04/24 06:32:14;;;;;;;8.85;8.00;;;;;;;17.84;45.69;98315.48;1741922;80;20919;-70
2022/04/24 06:34:42;;;;;;;9.15;8.45;;;;;;;18.00;45.32;98307.94;1726950;81;21446;-67
2022/04/24 06:37:09;;;;;;;9.10;8.30;;;;;;;18.49;44.99;98303.56;1701419;83;20923;-67
2022/04/24 06:39:37;;;;;;;8.55;7.75;;;;;;;19.17;44.36;98304.91;1713199;83;20897;-67
2022/04/24 06:42:05;;;;;;;8.53;7.83;;;;;;;19.86;42.95;98304.53;1722582;80;20936;-65
2022/04/24 06:44:35;;;;;;;8.38;7.67;;;;;;;20.56;41.51;98305.03;1729267;80;20994;-67
2022/04/24 06:47:02;;;;;;;8.05;7.45;;;;;;;21.05;40.18;98301.98;1726612;82;20993;-69
2022/04/24 06:49:30;;;;;;;8.23;7.60;;;;;;;21.46;39.49;98306.44;1734552;80;21049;-70
2022/04/24 06:51:58;;;;;;;8.13;7.47;;;;;;;21.87;38.73;98304.09;1726968;80;21104;-69
2022/04/24 06:54:25;;;;;;;7.45;6.85;;;;;;;22.40;38.18;98308.61;1733907;80;20912;-64
2022/04/24 06:56:53;;;;;;;8.25;7.65;;;;;;;22.83;37.05;98309.87;1717613;82;21184;-70
2022/04/24 06:59:19;;;;;;;8.65;7.95;;;;;;;23.15;36.00;98302.15;1726008;81;20978;-69
2022/04/24 07:01:46;;;;;;;7.33;6.72;;;;;;;23.16;35.22;98305.92;1716716;80;20987;-68
2022/04/24 07:04:14;;;;;;;8.00;7.40;;;;;;;23.16;35.40;98301.86;1726116;80;20930;-70
2022/04/24 07:06:40;;;;;;;7.17;6.50;;;;;;;23.37;35.16;98299.05;1718238;82;20932;-68
2022/04/24 07:09:07;;;;;;;6.75;6.25;;;;;;;23.67;34.34;98306.44;1733759;80;21151;-76
2022/04/24 07:11:35;;;;;;;7.05;6.45;;;;;;;23.92;33.87;98296.75;1732872;81;20892;-70
2022/04/24 07:14:04;;;;;;;6.58;6.08;;;;;;;24.19;32.68;98300.89;1722392;83;21458;-70
2022/04/24 07:16:30;;;;;;;6.85;6.35;;;;;;;24.19;32.68;98300.89;1713578;83;21553;-69
2022/04/24 07:18:58;;;;;;;7.20;6.70;;;;;;;24.45;32.42;98308.52;1725083;83;20888;-75
2022/04/24 07:21:26;;;;;;;7.03;6.50;;;;;;;24.52;32.03;98311.70;1725209;83;20933;-73
2022/04/24 07:23:54;;;;;;;5.97;5.55;;;;;;;24.73;32.27;98297.86;1723851;83;20976;-76
2022/04/24 07:26:22;;;;;;;6.60;6.10;;;;;;;25.20;31.88;98309.27;1725182;83;20952;-72
2022/04/24 07:28:50;;;;;;;5.65;5.25;;;;;;;25.59;31.20;98307.11;1725030;83;20964;-72
2022/04/24 07:31:19;;;;;;;6.03;5.58;;;;;;;25.87;30.11;98297.94;1709887;83;21102;-73
2022/04/24 07:33:45;;;;;;;6.53;6.03;;;;;;;26.01;30.16;98296.63;1724014;82;21090;-72
2022/04/24 07:36:11;;;;;;;6.17;5.72;;;;;;;26.35;29.97;98304.78;1721396;83;20947;-71
2022/04/24 07:38:39;;;;;;;6.15;5.75;;;;;;;26.68;29.11;98295.15;1710135;83;21012;-74
2022/04/24 07:41:06;;;;;;;6.78;6.28;;;;;;;26.89;28.69;98299.94;1703066;83;21417;-67
2022/04/24 07:43:33;;;;;;;5.72;5.30;;;;;;;27.25;28.47;98298.62;1713589;83;21013;-70
2022/04/24 07:46:00;;;;;;;6.15;5.55;;;;;;;27.65;27.66;98294.74;1715908;83;21207;-73
2022/04/24 07:48:27;;;;;;;5.62;5.22;;;;;;;27.67;26.96;98297.97;1725090;83;21423;-69
2022/04/24 07:50:54;;;;;;;5.45;5.10;;;;;;;27.58;26.55;98297.11;1725287;83;20864;-72
2022/04/24 07:53:21;;;;;;;5.70;5.20;;;;;;;27.36;26.82;98300.02;1707421;83;21042;-72
2022/04/24 07:55:50;;;;;;;5.58;5.08;;;;;;;27.32;26.95;98304.45;1710186;83;20946;-73
2022/04/24 07:58:16;;;;;;;5.20;4.80;;;;;;;27.35;26.78;98306.58;1716575;80;21118;-74
2022/04/24 08:00:45;;;;;;;5.55;5.10;;;;;;;27.43;26.86;98300.97;1733004;82;20892;-72
2022/04/24 08:03:13;;;;;;;5.40;5.00;;;;;;;27.73;26.71;98306.30;1715775;82;21039;-72
2022/04/24 08:05:48;;;;;;;5.83;5.25;;;;;;;28.01;26.79;98303.69;1731887;82;21013;-72
2022/04/24 08:08:20;;;;;;;5.10;4.67;;;;;;;28.39;26.41;98306.86;1713707;82;21152;-76
2022/04/24 08:10:53;;;;;;;5.67;4.78;;;;;;;28.57;25.43;98301.16;1731625;82;21887;-73
2022/04/24 08:13:20;;;;;;;4.45;4.15;;;;;;;28.39;24.90;98304.94;1713219;80;20963;-70
2022/04/24 08:15:48;;;;;;;4.75;4.42;;;;;;;28.49;25.11;98304.66;1732146;80;21032;-71
2022/04/24 08:18:15;;;;;;;6.25;5.17;;;;;;;28.65;25.07;98311.34;1715718;82;20914;-69
2022/04/24 08:20:44;;;;;;;4.50;4.20;;;;;;;28.76;24.62;98296.27;1717003;82;21010;-68
2022/04/24 08:23:12;;;;;;;5.08;4.67;;;;;;;28.39;24.80;98302.20;1714760;82;21231;-67
2022/04/24 08:25:39;;;;;;;4.80;4.40;;;;;;;28.27;24.42;98291.02;1730168;80;20971;-68
2022/04/24 08:28:10;;;;;;;4.62;4.22;;;;;;;27.90;25.02;98301.77;1718023;80;20903;-69
2022/04/24 08:30:40;;;;;;;6.85;4.17;;;;;;;28.28;24.45;98300.84;1722455;80;20936;-70
2022/04/24 08:33:08;;;;;;;5.90;4.80;;;;;;;28.66;23.63;98301.20;1708640;82;21129;-70
2022/04/24 08:35:35;;;;;;;6.15;4.60;;;;;;;28.78;23.32;98303.59;1726582;82;21286;-72
2022/04/24 08:38:03;;;;;;;5.28;4.80;;;;;;;29.08;23.09;98307.39;1726461;82;21486;-70
2022/04/24 08:40:31;;;;;;;5.87;5.25;;;;;;;28.73;23.15;98308.42;1692414;82;21045;-70
2022/04/24 08:42:57;;;;;;;5.42;4.95;;;;;;;28.07;23.83;98301.13;1691884;84;20868;-67
2022/04/24 08:45:30;;;;;;;5.25;4.85;;;;;;;27.76;24.49;98299.67;1682485;82;21261;-68
2022/04/24 08:47:59;;;;;;;5.12;4.75;;;;;;;27.93;24.51;98303.88;1701430;82;20971;-68
2022/04/24 08:50:28;;;;;;;6.08;4.92;;;;;;;27.96;24.38;98307.92;1699690;84;20887;-72
2022/04/24 08:52:57;;;;;;;5.58;5.12;;;;;;;27.79;24.61;98308.62;1696633;82;20912;-71
2022/04/24 08:55:27;;;;;;;5.03;4.62;;;;;;;26.95;25.24;98304.73;1727315;82;20867;-70
2022/04/24 08:57:54;;;;;;;5.42;4.92;;;;;;;26.46;26.00;98297.23;1744834;82;21446;-70
2022/04/24 09:00:21;;;;;;;5.25;4.85;;;;;;;26.86;25.57;98296.44;1673320;85;21202;-69
2022/04/24 09:02:49;;;;;;;4.80;4.50;;;;;;;26.82;26.08;98302.82;1681635;85;21536;-70
2022/04/24 09:05:16;;;;;;;10.43;9.63;;;;;;;27.58;25.02;98289.72;1700156;84;21529;-69
2022/04/24 09:07:45;;;;;;;5.85;5.35;;;;;;;27.10;25.52;98300.87;1699648;82;20975;-71
2022/04/24 09:10:12;;;;;;;4.47;4.17;;;;;;;27.91;24.49;98288.36;1660563;85;21455;-71
2022/04/24 09:12:40;;;;;;;4.85;4.42;;;;;;;27.23;24.77;98287.20;1700811;84;21399;-72
2022/04/24 09:15:09;;;;;;;5.20;4.80;;;;;;;27.02;24.78;98286.57;1716778;82;20965;-70
2022/04/24 09:17:36;;;;;;;5.65;5.15;;;;;;;27.01;24.12;98289.85;1741109;82;20986;-68
2022/04/24 09:20:18;;;;;;;5.17;4.67;;;;;;;26.64;24.53;98292.78;1739472;82;20899;-71
2022/04/24 09:22:47;;;;;;;4.35;3.95;;;;;;;26.93;24.43;98291.38;1733553;82;20872;-71
2022/04/24 09:25:15;;;;;;;4.75;4.45;;;;;;;26.47;24.58;98292.00;1738415;82;21109;-69
2022/04/24 09:27:42;;;;;;;4.25;3.95;;;;;;;27.47;23.95;98274.68;1720576;82;20946;-69
2022/04/24 09:30:15;;;;;;;5.65;4.22;;;;;;;27.60;24.21;98280.66;1727737;82;20927;-70
2022/04/24 09:32:53;;;;;;;4.37;4.05;;;;;;;27.34;24.56;98268.67;1735737;82;20980;-69
2022/04/24 09:35:30;;;;;;;3.87;3.58;;;;;;;27.96;24.08;98270.47;1725351;82;21542;-70
2022/04/24 09:38:18;;;;;;;4.67;4.37;;;;;;;27.96;23.78;98275.12;1714224;82;21095;-69
2022/04/24 09:40:46;;;;;;;4.10;3.80;;;;;;;28.64;22.94;98286.48;1723262;82;20853;-68
2022/04/24 09:43:18;;;;;;;4.60;4.20;;;;;;;29.15;22.14;98276.23;1715649;82;20986;-69
2022/04/24 09:45:53;;;;;;;3.83;3.45;;;;;;;28.43;22.42;98286.77;1719527;82;20943;-70
2022/04/24 09:48:21;;;;;;;3.52;3.33;;;;;;;27.98;22.68;98287.91;1732989;82;21018;-71
2022/04/24 09:50:49;;;;;;;4.03;3.72;;;;;;;27.96;23.11;98283.32;1733168;82;21206;-71
2022/04/24 09:53:20;;;;;;;3.92;3.50;;;;;;;28.61;22.10;98285.75;1732552;80;20940;-68
2022/04/24 09:55:51;;;;;;;3.72;3.42;;;;;;;28.54;22.22;98277.72;1721370;80;21370;-69
2022/04/24 09:58:18;;;;;;;3.90;3.60;;;;;;;28.92;21.96;98284.31;1725187;80;20928;-70
2022/04/24 10:00:46;;;;;;;3.92;3.35;;;;;;;28.30;22.39;98285.48;1733808;80;20865;-70
2022/04/24 10:03:16;;;;;;;3.52;3.33;;;;;;;28.62;22.04;98285.19;1733087;82;21054;-69
2022/04/24 10:05:47;;;;;;;3.80;3.50;;;;;;;28.24;22.56;98292.20;1726742;80;20860;-71
2022/04/24 10:08:19;;;;;;;3.37;3.17;;;;;;;27.38;22.64;98288.77;1730964;80;20990;-72
2022/04/24 10:10:47;;;;;;;3.30;3.05;;;;;;;26.13;24.08;98288.81;1732545;82;21134;-71
2022/04/24 10:13:15;;;;;;;3.72;3.42;;;;;;;25.52;25.01;98303.41;1733147;81;20904;-69
2022/04/24 10:15:51;;;;;;;3.83;3.52;;;;;;;25.07;25.45;98293.94;1731225;82;21267;-67
2022/04/24 10:18:50;;;;;;;4.08;3.77;;;;;;;24.74;26.61;98294.84;1715557;83;21018;-67
2022/04/24 10:21:36;;;;;;;3.80;3.50;;;;;;;24.57;26.53;98297.23;1721971;83;20925;-68
2022/04/24 10:24:12;;;;;;;3.52;3.25;;;;;;;24.01;26.86;98292.07;1725186;82;21012;-71
2022/04/24 10:26:39;;;;;;;;;;;;;;;23.53;27.63;98291.89;1726362;83;21095;-70
2022/04/24 10:29:09;;;;;;;3.30;3.10;;;;;;;23.30;28.40;98292.56;1711486;83;20202;-70
2022/04/24 10:31:44;;;;;;;2.72;2.62;;;;;;;23.19;28.46;98290.45;1712316;83;21395;-71
2022/04/24 10:34:21;;;;;;;3.98;3.37;;;;;;;23.00;28.56;98284.03;1720830;83;20877;-74
2022/04/24 10:36:58;;;;;;;4.47;2.85;;;;;;;22.79;28.86;98293.34;1724421;82;20965;-73
2022/04/24 10:39:30;;;;;;;3.27;2.98;;;;;;;22.50;28.91;98291.78;1725023;83;20873;-77
2022/04/24 10:42:08;;;;;;;2.95;2.75;;;;;;;22.20;29.29;98291.86;1715644;83;21149;-71
2022/04/24 10:44:35;;;;;;;2.80;2.60;;;;;;;22.02;29.80;98291.89;1723289;83;21026;-69
2022/04/24 10:47:10;;;;;;;3.15;2.92;;;;;;;21.79;30.05;98296.48;1715026;82;21008;-72
2022/04/24 10:49:38;;;;;;;2.90;2.70;;;;;;;21.64;30.69;98285.62;1733836;80;20888;-68
2022/04/24 10:52:06;;;;;;;4.58;2.85;;;;;;;21.53;30.91;98294.27;1732824;80;20885;-68
2022/04/24 10:54:40;;;;;;;2.98;2.72;;;;;;;21.36;30.40;98279.37;1726378;80;20900;-78
2022/04/24 10:57:21;;;;;;;3.10;2.83;;;;;;;21.18;30.86;98271.77;1715959;82;20936;-77
2022/04/24 10:59:52;;;;;;;4.22;2.50;;;;;;;21.08;30.93;98290.67;1712709;82;20966;-77
2022/04/24 11:02:24;;;;;;;2.60;2.40;;;;;;;20.95;31.06;98285.20;1730266;80;20998;-74
2022/04/24 11:05:10;;;;;;;2.83;2.33;;;;;;;20.89;31.01;98278.95;1720596;80;20999;-76
2022/04/24 11:07:37;;;;;;;2.58;2.37;;;;;;;20.79;30.93;98289.73;1726923;82;21214;-75
2022/04/24 11:10:09;;;;;;;2.72;2.35;;;;;;;20.69;31.20;98292.40;1733810;80;21434;-78
2022/04/24 11:12:38;;;;;;;2.67;2.47;;;;;;;20.63;31.65;98296.67;1734544;80;21355;-76
2022/04/24 11:15:12;;;;;;;2.50;2.25;;;;;;;20.65;31.39;98292.63;1730789;82;20900;-72
2022/04/24 11:17:39;;;;;;;2.45;2.25;;;;;;;20.62;31.35;98289.66;1722963;80;20896;-74
2022/04/24 11:20:13;;;;;;;2.60;2.40;;;;;;;20.62;31.35;98289.66;1734260;80;20896;-76
2022/04/24 11:22:48;;;;;;;2.17;2.05;;;;;;;20.67;31.31;98287.80;1734883;80;20979;-73
2022/04/24 11:25:20;;;;;;;2.30;2.20;;;;;;;20.69;30.97;98283.47;1734999;80;21043;-73
2022/04/24 11:27:51;;;;;;;2.50;2.30;;;;;;;20.67;31.19;98281.58;1733013;82;21462;-74
2022/04/24 11:30:20;;;;;;;2.65;2.22;;;;;;;20.70;31.37;98282.41;1731006;80;20954;-70
2022/04/24 11:33:05;;;;;;;2.22;2.12;;;;;;;20.77;31.05;98275.68;1708114;82;21785;-73
2022/04/24 11:35:37;;;;;;;2.42;2.22;;;;;;;20.87;30.82;98278.95;1747473;80;21215;-71
2022/04/24 11:38:05;;;;;;;3.05;2.45;;;;;;;20.94;30.73;98275.45;1752699;80;20926;-74
2022/04/24 11:40:33;;;;;;;2.22;1.92;;;;;;;20.94;30.33;98278.97;1746696;81;20938;-72